createdAt,value
2023-03-11T00:02:51.992Z,2.30
2023-03-11T00:08:23.903Z,2.30
2023-03-11T00:11:07.923Z,2.30
2023-03-11T00:13:42.370Z,2.30
2023-03-11T00:16:18.578Z,2.30
2023-03-11T00:19:08.115Z,2.20
2023-03-11T00:21:41.951Z,2.20
2023-03-11T00:24:22.842Z,2.10
2023-03-11T00:26:59.603Z,2.10
2023-03-11T00:29:32.747Z,2.00
2023-03-11T00:32:05.124Z,2.00
2023-03-11T00:34:37.320Z,2.00
2023-03-11T00:37:11.529Z,1.90
2023-03-11T00:39:53.195Z,1.90
2023-03-11T00:42:24.745Z,2.00
2023-03-11T00:45:00.310Z,1.90
2023-03-11T00:50:32.525Z,1.80
2023-03-11T00:53:07.559Z,1.80
2023-03-11T00:55:50.070Z,1.70
2023-03-11T00:58:35.847Z,1.80
2023-03-11T01:01:20.360Z,1.70
2023-03-11T01:04:03.506Z,1.70
2023-03-11T01:06:48.319Z,1.70
2023-03-11T01:09:22.582Z,1.70
2023-03-11T01:11:59.216Z,1.70
2023-03-11T01:14:31.564Z,1.70
2023-03-11T01:17:16.717Z,1.70
2023-03-11T01:19:53.516Z,1.60
2023-03-11T01:22:35.857Z,1.70
2023-03-11T01:25:07.687Z,1.60
2023-03-11T01:27:40.336Z,1.70
2023-03-11T01:30:17.249Z,1.70
2023-03-11T01:32:50.180Z,1.60
2023-03-11T01:35:25.875Z,1.60
2023-03-11T01:38:21.764Z,1.60
2023-03-11T01:41:14.433Z,1.60
2023-03-11T01:44:00.510Z,1.60
2023-03-11T01:46:38.547Z,1.60
2023-03-11T01:49:24.275Z,1.50
2023-03-11T01:52:18.742Z,1.50
2023-03-11T01:54:51.918Z,1.60
2023-03-11T01:57:29.950Z,1.50
2023-03-11T02:00:03.151Z,1.50
2023-03-11T02:02:47.743Z,1.40
2023-03-11T02:05:22.531Z,1.50
2023-03-11T02:07:54.681Z,1.50
2023-03-11T02:10:24.321Z,1.50
2023-03-11T02:13:00.429Z,1.40
2023-03-11T02:15:48.788Z,1.40
2023-03-11T02:18:29.087Z,1.40
2023-03-11T02:21:06.716Z,1.40
2023-03-11T02:23:50.345Z,1.40
2023-03-11T02:26:32.411Z,1.30
2023-03-11T02:29:09.780Z,1.30
2023-03-11T02:31:44.291Z,1.30
2023-03-11T02:34:21.029Z,1.40
2023-03-11T02:39:44.932Z,1.40
2023-03-11T02:42:23.470Z,1.40
2023-03-11T02:45:03.300Z,1.30
2023-03-11T02:47:37.803Z,1.30
2023-03-11T02:50:13.790Z,1.30
2023-03-11T02:52:55.769Z,1.30
2023-03-11T02:55:26.452Z,1.30
2023-03-11T02:58:00.366Z,1.40
2023-03-11T03:00:43.469Z,1.40
2023-03-11T03:03:18.516Z,1.30
2023-03-11T03:05:49.244Z,1.40
2023-03-11T03:08:24.656Z,1.30
2023-03-11T03:11:03.217Z,1.30
2023-03-11T03:13:42.713Z,1.30
2023-03-11T03:16:23.517Z,1.20
2023-03-11T03:19:04.322Z,1.30
2023-03-11T03:21:55.377Z,1.30
2023-03-11T03:24:26.944Z,1.20
2023-03-11T03:27:05.128Z,1.20
2023-03-11T03:29:34.565Z,1.30
2023-03-11T03:32:13.112Z,1.40
2023-03-11T03:35:00.016Z,1.40
2023-03-11T03:37:37.579Z,1.40
2023-03-11T03:40:16.279Z,1.40
2023-03-11T03:42:54.086Z,1.40
2023-03-11T03:45:27.742Z,1.40
2023-03-11T03:48:00.669Z,1.40
2023-03-11T03:50:38.167Z,1.30
2023-03-11T03:53:11.444Z,1.30
2023-03-11T03:55:54.879Z,1.40
2023-03-11T03:58:37.698Z,1.40
2023-03-11T04:01:13.556Z,1.10
2023-03-11T04:03:58.652Z,1.30
2023-03-11T04:06:39.789Z,1.30
2023-03-11T04:09:15.152Z,1.30
2023-03-11T04:11:51.282Z,1.30
2023-03-11T04:14:27.940Z,1.30
2023-03-11T04:16:58.673Z,1.30
2023-03-11T04:19:42.161Z,1.30
2023-03-11T04:22:26.728Z,1.30
2023-03-11T04:24:56.906Z,1.30
2023-03-11T04:27:35.890Z,1.30
2023-03-11T04:30:05.768Z,1.20
2023-03-11T04:32:49.343Z,1.30
2023-03-11T04:35:21.038Z,1.30
2023-03-11T04:37:51.257Z,1.40
2023-03-11T04:40:27.896Z,1.30
2023-03-11T04:42:59.973Z,1.30
2023-03-11T04:45:31.790Z,1.40
2023-03-11T04:48:07.490Z,1.30
2023-03-11T04:50:56.552Z,1.30
2023-03-11T04:53:31.944Z,1.30
2023-03-11T04:56:03.101Z,1.40
2023-03-11T05:01:29.061Z,1.20
2023-03-11T05:04:12.534Z,1.30
2023-03-11T05:06:55.420Z,1.40
2023-03-11T05:09:29.224Z,1.40
2023-03-11T05:12:02.011Z,1.40
2023-03-11T05:14:46.570Z,1.40
2023-03-11T05:17:22.154Z,1.40
2023-03-11T05:20:06.735Z,1.40
2023-03-11T05:23:06.148Z,1.40
2023-03-11T05:25:43.163Z,1.40
2023-03-11T05:28:16.610Z,1.40
2023-03-11T05:31:00.422Z,1.40
2023-03-11T05:33:37.254Z,1.40
2023-03-11T05:36:08.672Z,1.40
2023-03-11T05:38:46.336Z,1.40
2023-03-11T05:41:19.012Z,1.40
2023-03-11T05:44:06.495Z,1.50
2023-03-11T05:46:42.135Z,1.40
2023-03-11T05:49:18.162Z,1.30
2023-03-11T05:51:48.541Z,1.40
2023-03-11T05:54:24.230Z,1.20
2023-03-11T05:56:59.889Z,1.40
2023-03-11T05:59:31.226Z,1.40
2023-03-11T06:02:02.176Z,1.70
2023-03-11T06:04:52.365Z,1.40
2023-03-11T06:07:35.900Z,1.40
2023-03-11T06:13:04.562Z,1.40
2023-03-11T06:15:37.434Z,1.60
2023-03-11T06:18:11.041Z,1.40
2023-03-11T06:20:44.400Z,1.40
2023-03-11T06:23:23.735Z,1.40
2023-03-11T06:26:03.132Z,1.40
2023-03-11T06:28:37.480Z,1.40
2023-03-11T06:31:09.944Z,1.40
2023-03-11T06:33:42.713Z,1.40
2023-03-11T06:36:14.510Z,1.40
2023-03-11T06:38:45.382Z,1.40
2023-03-11T06:41:18.702Z,1.40
2023-03-11T06:43:48.246Z,1.50
2023-03-11T06:46:26.586Z,1.40
2023-03-11T06:49:01.090Z,1.50
2023-03-11T06:51:40.389Z,1.50
2023-03-11T06:54:14.390Z,1.50
2023-03-11T06:57:01.344Z,1.60
2023-03-11T06:59:32.985Z,1.70
2023-03-11T07:02:02.564Z,1.50
2023-03-11T07:04:38.444Z,1.60
2023-03-11T07:07:09.239Z,1.50
2023-03-11T07:09:40.871Z,1.60
2023-03-11T07:12:39.495Z,1.50
2023-03-11T07:15:14.261Z,1.60
2023-03-11T07:17:43.599Z,1.50
2023-03-11T07:20:14.777Z,1.60
2023-03-11T07:22:58.903Z,1.70
2023-03-11T07:25:42.616Z,1.80
2023-03-11T07:28:20.926Z,1.70
2023-03-11T07:30:56.241Z,1.60
2023-03-11T07:33:29.889Z,1.60
2023-03-11T07:35:58.794Z,1.60
2023-03-11T07:38:27.955Z,1.60
2023-03-11T07:41:12.289Z,1.70
2023-03-11T07:43:44.891Z,1.70
2023-03-11T07:46:18.236Z,1.70
2023-03-11T07:48:48.017Z,1.80
2023-03-11T07:51:22.245Z,1.80
2023-03-11T07:53:51.561Z,1.80
2023-03-11T07:56:23.501Z,1.80
2023-03-11T07:59:03.053Z,1.90
2023-03-11T08:01:47.591Z,1.80
2023-03-11T08:04:21.316Z,1.90
2023-03-11T08:07:07.896Z,2.00
2023-03-11T08:09:40.511Z,1.90
2023-03-11T08:12:18.374Z,1.90
2023-03-11T08:14:53.702Z,1.90
2023-03-11T08:17:29.887Z,1.80
2023-03-11T08:20:01.949Z,1.90
2023-03-11T08:22:36.928Z,2.00
2023-03-11T08:25:12.545Z,1.80
2023-03-11T08:27:42.417Z,2.00
2023-03-11T08:30:21.016Z,2.00
2023-03-11T08:33:04.852Z,2.00
2023-03-11T08:35:33.574Z,2.00
2023-03-11T08:38:02.310Z,2.00
2023-03-11T08:40:35.552Z,2.00
2023-03-11T08:43:19.889Z,1.90
2023-03-11T08:45:54.431Z,2.00
2023-03-11T08:48:26.621Z,2.00
2023-03-11T08:51:14.869Z,1.80
2023-03-11T08:53:48.710Z,1.80
2023-03-11T08:56:20.997Z,1.80
2023-03-11T08:59:01.088Z,1.90
2023-03-11T09:01:56.495Z,2.00
2023-03-11T09:04:29.060Z,2.00
2023-03-11T09:09:55.227Z,2.10
2023-03-11T09:18:27.040Z,2.00
2023-03-11T09:21:19.437Z,2.10
2023-03-11T09:27:00.335Z,2.10
2023-03-11T09:29:51.675Z,2.20
2023-03-11T09:32:22.040Z,2.40
2023-03-11T09:34:54.909Z,2.30
2023-03-11T09:37:25.438Z,2.40
2023-03-11T09:40:05.511Z,2.50
2023-03-11T09:42:43.366Z,2.60
2023-03-11T09:45:35.531Z,2.70
2023-03-11T09:48:32.514Z,2.80
2023-03-11T09:51:18.770Z,2.90
2023-03-11T09:53:57.806Z,2.90
2023-03-11T09:56:29.441Z,2.80
2023-03-11T09:59:04.844Z,2.70
2023-03-11T10:01:36.029Z,2.60
2023-03-11T10:04:08.239Z,2.60
2023-03-11T10:06:39.070Z,2.80
2023-03-11T10:09:16.824Z,3.00
2023-03-11T10:15:03.418Z,3.30
2023-03-11T10:17:54.909Z,3.20
2023-03-11T10:20:34.273Z,3.00
2023-03-11T10:23:10.757Z,3.10
2023-03-11T10:25:49.962Z,3.00
2023-03-11T10:28:36.043Z,3.10
2023-03-11T10:31:21.789Z,3.10
2023-03-11T10:34:03.706Z,3.00
2023-03-11T10:36:41.037Z,3.00
2023-03-11T10:39:13.290Z,3.00
2023-03-11T10:41:48.305Z,3.00
2023-03-11T10:44:32.576Z,3.10
2023-03-11T10:47:13.498Z,3.00
2023-03-11T10:52:47.903Z,2.80
2023-03-11T10:55:33.480Z,3.00
2023-03-11T10:58:15.647Z,3.00
2023-03-11T11:00:47.708Z,3.10
2023-03-11T11:03:30.648Z,3.10
2023-03-11T11:06:04.864Z,3.10
2023-03-11T11:08:33.368Z,3.10
2023-03-11T11:11:04.029Z,3.00
2023-03-11T11:13:37.320Z,3.10
2023-03-11T11:16:23.218Z,3.10
2023-03-11T11:19:12.798Z,3.10
2023-03-11T11:21:46.159Z,4.20
2023-03-11T11:24:20.969Z,5.60
2023-03-11T11:27:20.183Z,5.00
2023-03-11T11:30:06.285Z,4.40
2023-03-11T11:32:41.200Z,3.80
2023-03-11T11:35:28.180Z,3.50
2023-03-11T11:38:09.554Z,3.50
2023-03-11T11:40:46.170Z,3.60
2023-03-11T11:43:23.887Z,3.50
2023-03-11T11:45:57.862Z,3.40
2023-03-11T11:48:55.354Z,3.30
2023-03-11T11:51:37.451Z,3.30
2023-03-11T11:54:26.230Z,3.40
2023-03-11T11:57:05.107Z,3.40
2023-03-11T11:59:40.211Z,3.40
2023-03-11T12:02:30.294Z,3.40
2023-03-11T12:05:08.126Z,3.40
2023-03-11T12:10:33.774Z,3.30
2023-03-11T12:13:19.607Z,3.40
2023-03-11T12:15:51.888Z,3.40
2023-03-11T12:18:24.010Z,3.40
2023-03-11T12:20:55.287Z,3.50
2023-03-11T12:23:30.094Z,3.40
2023-03-11T12:26:07.109Z,3.50
2023-03-11T12:28:39.542Z,3.50
2023-03-11T12:31:10.209Z,3.80
2023-03-11T12:33:39.830Z,3.70
2023-03-11T12:36:10.931Z,3.70
2023-03-11T12:38:40.894Z,3.60
2023-03-11T12:41:27.650Z,3.50
2023-03-11T12:44:00.929Z,3.50
2023-03-11T12:46:48.502Z,3.60
2023-03-11T12:49:16.667Z,3.60
2023-03-11T12:52:01.581Z,3.60
2023-03-11T12:54:31.703Z,3.60
2023-03-11T12:57:02.588Z,3.50
2023-03-11T12:59:49.852Z,3.60
2023-03-11T13:02:26.074Z,3.60
2023-03-11T13:04:59.534Z,3.70
2023-03-11T13:07:38.600Z,3.60
2023-03-11T13:10:14.268Z,3.30
2023-03-11T13:12:45.834Z,3.30
2023-03-11T13:15:35.386Z,3.30
2023-03-11T13:18:05.599Z,3.40
2023-03-11T13:20:51.045Z,3.40
2023-03-11T13:23:27.788Z,3.50
2023-03-11T13:26:17.285Z,3.50
2023-03-11T13:28:55.916Z,3.60
2023-03-11T13:31:34.804Z,3.50
2023-03-11T13:34:06.523Z,3.60
2023-03-11T13:36:49.566Z,3.50
2023-03-11T13:39:33.516Z,3.50
2023-03-11T13:42:04.740Z,3.50
2023-03-11T13:44:36.620Z,3.50
2023-03-11T13:47:07.312Z,3.50
2023-03-11T13:49:39.396Z,3.40
2023-03-11T13:52:09.754Z,3.30
2023-03-11T13:54:40.610Z,3.60
2023-03-11T13:57:17.335Z,3.50
2023-03-11T13:59:52.678Z,3.70
2023-03-11T14:02:22.615Z,3.60
2023-03-11T14:04:52.152Z,3.60
2023-03-11T14:07:27.843Z,3.60
2023-03-11T14:10:19.014Z,3.70
2023-03-11T14:12:48.269Z,3.70
2023-03-11T14:15:23.282Z,3.70
2023-03-11T14:17:54.935Z,3.80
2023-03-11T14:20:25.585Z,3.90
2023-03-11T14:22:55.097Z,3.90
2023-03-11T14:25:25.357Z,3.90
2023-03-11T14:27:55.216Z,4.00
2023-03-11T14:30:26.130Z,4.00
2023-03-11T14:33:04.801Z,4.20
2023-03-11T14:35:34.613Z,4.30
2023-03-11T14:38:03.045Z,4.30
2023-03-11T14:40:32.282Z,4.40
2023-03-11T14:43:02.170Z,4.60
2023-03-11T14:45:33.220Z,4.60
2023-03-11T14:48:05.027Z,4.70
2023-03-11T14:50:35.251Z,4.40
2023-03-11T14:53:05.067Z,4.50
2023-03-11T14:55:35.376Z,4.30
2023-03-11T14:58:05.004Z,4.30
2023-03-11T15:00:37.374Z,4.60
2023-03-11T15:03:14.454Z,4.50
2023-03-11T15:05:45.478Z,4.40
2023-03-11T15:08:14.907Z,4.40
2023-03-11T15:11:03.241Z,4.30
2023-03-11T15:13:32.471Z,4.40
2023-03-11T15:16:03.604Z,4.40
2023-03-11T15:18:33.673Z,4.30
2023-03-11T15:21:10.146Z,4.20
2023-03-11T15:23:39.207Z,4.10
2023-03-11T15:26:08.044Z,4.10
2023-03-11T15:28:39.253Z,4.10
2023-03-11T15:31:19.364Z,4.00
2023-03-11T15:33:47.764Z,4.00
2023-03-11T15:36:32.300Z,3.90
2023-03-11T15:39:15.413Z,3.90
2023-03-11T15:41:44.056Z,3.90
2023-03-11T15:44:27.106Z,3.90
2023-03-11T15:46:59.928Z,3.70
2023-03-11T15:49:28.684Z,3.80
2023-03-11T15:51:59.652Z,3.70
2023-03-11T15:54:28.400Z,3.70
2023-03-11T15:56:57.497Z,3.70
2023-03-11T15:59:26.293Z,3.60
2023-03-11T16:01:55.087Z,3.60
2023-03-11T16:04:25.163Z,3.70
2023-03-11T16:07:06.893Z,3.60
2023-03-11T16:09:37.126Z,3.60
2023-03-11T16:12:12.600Z,3.50
2023-03-11T16:14:41.376Z,3.40
2023-03-11T16:17:10.178Z,3.40
2023-03-11T16:19:40.719Z,3.40
2023-03-11T16:22:09.834Z,3.40
2023-03-11T16:24:38.712Z,3.40
2023-03-11T16:27:07.937Z,3.40
2023-03-11T16:29:36.727Z,3.30
2023-03-11T16:32:06.351Z,3.30
2023-03-11T16:34:35.039Z,3.30
2023-03-11T16:37:05.687Z,3.30
2023-03-11T16:39:34.492Z,3.40
2023-03-11T16:42:03.456Z,3.40
2023-03-11T16:44:32.410Z,3.40
2023-03-11T16:47:01.399Z,3.30
2023-03-11T16:49:30.649Z,3.30
2023-03-11T16:51:59.990Z,3.30
2023-03-11T16:54:30.162Z,3.20
2023-03-11T16:56:58.654Z,3.20
2023-03-11T16:59:26.963Z,3.20
2023-03-11T17:01:55.999Z,3.10
2023-03-11T17:04:24.886Z,3.20
2023-03-11T17:06:53.377Z,3.10
2023-03-11T17:09:24.056Z,3.10
2023-03-11T17:11:54.365Z,3.10
2023-03-11T17:14:22.818Z,3.10
2023-03-11T17:16:51.452Z,3.00
2023-03-11T17:19:19.933Z,3.00
2023-03-11T17:21:48.110Z,3.00
2023-03-11T17:24:16.788Z,2.90
2023-03-11T17:26:45.581Z,2.90
2023-03-11T17:29:16.107Z,2.90
2023-03-11T17:31:44.961Z,2.80
2023-03-11T17:34:14.984Z,2.80
2023-03-11T17:36:43.617Z,2.90
2023-03-11T17:39:15.129Z,2.80
2023-03-11T17:41:43.937Z,2.80
2023-03-11T17:44:12.934Z,2.90
2023-03-11T17:46:43.336Z,2.90
2023-03-11T17:49:14.708Z,2.90
2023-03-11T17:51:43.505Z,2.80
2023-03-11T17:54:11.804Z,2.80
2023-03-11T17:56:40.480Z,2.80
2023-03-11T17:59:09.469Z,2.90
2023-03-11T18:01:38.630Z,2.80
2023-03-11T18:04:08.651Z,2.70
2023-03-11T18:06:37.592Z,2.70
2023-03-11T18:09:05.646Z,2.70
2023-03-11T18:11:34.209Z,2.70
2023-03-11T18:14:02.696Z,2.80
2023-03-11T18:16:32.145Z,2.70
2023-03-11T18:19:00.861Z,2.70
2023-03-11T18:21:31.736Z,2.70
2023-03-11T18:24:00.564Z,2.60
2023-03-11T18:26:30.272Z,2.60
2023-03-11T18:28:59.085Z,2.60
2023-03-11T18:31:28.028Z,2.60
2023-03-11T18:33:57.670Z,2.50
2023-03-11T18:36:27.295Z,2.50
2023-03-11T18:38:58.299Z,2.50
2023-03-11T18:41:27.123Z,2.50
2023-03-11T18:43:57.772Z,2.50
2023-03-11T18:46:27.619Z,2.40
2023-03-11T18:48:57.874Z,2.40
2023-03-11T18:51:26.738Z,2.40
2023-03-11T18:53:56.940Z,2.30
2023-03-11T18:56:25.273Z,2.30
2023-03-11T18:58:55.810Z,2.30
2023-03-11T19:01:24.839Z,2.20
2023-03-11T19:03:54.233Z,2.20
2023-03-11T19:06:23.512Z,2.10
2023-03-11T19:08:52.906Z,2.00
2023-03-11T19:11:24.284Z,2.00
2023-03-11T19:13:53.608Z,2.00
2023-03-11T19:16:24.145Z,2.20
2023-03-11T19:18:54.123Z,2.10
2023-03-11T19:21:23.519Z,2.00
2023-03-11T19:23:55.589Z,2.10
2023-03-11T19:26:43.278Z,2.00
2023-03-11T19:29:13.994Z,2.00
2023-03-11T19:31:43.916Z,2.00
2023-03-11T19:34:12.907Z,2.00
2023-03-11T19:36:41.975Z,2.00
2023-03-11T19:39:10.669Z,1.90
2023-03-11T19:41:40.614Z,2.00
2023-03-11T19:44:09.258Z,1.90
2023-03-11T19:46:38.582Z,1.90
2023-03-11T19:49:07.907Z,1.90
2023-03-11T19:51:49.165Z,1.90
2023-03-11T19:54:19.646Z,1.80
2023-03-11T19:56:50.546Z,1.80
2023-03-11T19:59:19.313Z,1.60
2023-03-11T20:01:48.219Z,1.60
2023-03-11T20:04:16.910Z,1.50
2023-03-11T20:06:46.212Z,1.60
2023-03-11T20:09:16.365Z,1.60
2023-03-11T20:11:45.987Z,1.50
2023-03-11T20:14:16.772Z,1.50
2023-03-11T20:16:45.486Z,1.40
2023-03-11T20:19:14.320Z,1.40
2023-03-11T20:21:45.689Z,1.40
2023-03-11T20:24:14.396Z,1.40
2023-03-11T20:26:43.043Z,1.40
2023-03-11T20:29:11.796Z,1.40
2023-03-11T20:31:41.898Z,1.30
2023-03-11T20:34:10.725Z,1.40
2023-03-11T20:36:39.332Z,1.10
2023-03-11T20:39:10.824Z,1.30
2023-03-11T20:41:42.497Z,1.50
2023-03-11T20:44:12.794Z,1.20
2023-03-11T20:46:43.112Z,1.30
2023-03-11T20:49:11.538Z,1.30
2023-03-11T20:51:41.803Z,1.50
2023-03-11T20:54:10.294Z,1.20
2023-03-11T20:56:44.364Z,1.20
2023-03-11T20:59:13.673Z,1.30
2023-03-11T21:01:43.509Z,1.30
2023-03-11T21:04:12.501Z,1.30
2023-03-11T21:06:42.403Z,1.30
2023-03-11T21:09:13.695Z,1.30
2023-03-11T21:11:42.563Z,1.30
2023-03-11T21:14:16.245Z,1.30
2023-03-11T21:16:47.824Z,1.30
2023-03-11T21:19:16.776Z,1.20
2023-03-11T21:21:45.428Z,1.20
2023-03-11T21:24:14.288Z,1.30
2023-03-11T21:26:43.194Z,1.20
2023-03-11T21:29:12.084Z,1.20
2023-03-11T21:31:40.869Z,1.20
2023-03-11T21:34:13.081Z,1.30
2023-03-11T21:36:41.909Z,1.20
2023-03-11T21:39:10.458Z,1.20
2023-03-11T21:41:40.341Z,1.10
2023-03-11T21:44:08.785Z,1.10
2023-03-11T21:46:37.616Z,1.00
2023-03-11T21:49:06.534Z,1.00
2023-03-11T21:51:37.156Z,1.00
2023-03-11T21:54:07.549Z,1.00
2023-03-11T21:56:36.370Z,1.00
2023-03-11T21:59:05.327Z,1.00
2023-03-11T22:01:34.758Z,1.00
2023-03-11T22:04:03.726Z,1.00
2023-03-11T22:06:35.154Z,2.00
2023-03-11T22:09:06.509Z,2.90
2023-03-11T22:11:35.763Z,2.90
2023-03-11T22:14:04.546Z,2.20
2023-03-11T22:16:33.477Z,1.60
2023-03-11T22:19:02.155Z,1.40
2023-03-11T22:21:30.920Z,1.20
2023-03-11T22:23:59.799Z,0.90
2023-03-11T22:26:30.359Z,0.90
2023-03-11T22:28:58.981Z,0.80
2023-03-11T22:31:27.829Z,0.80
2023-03-11T22:33:56.408Z,0.80
2023-03-11T22:36:24.893Z,0.80
2023-03-11T22:38:53.305Z,0.70
2023-03-11T22:41:21.883Z,0.70
2023-03-11T22:43:51.936Z,0.70
2023-03-11T22:46:20.460Z,0.60
2023-03-11T22:48:48.906Z,0.80
2023-03-11T22:51:17.488Z,0.60
2023-03-11T22:53:47.449Z,0.50
2023-03-11T22:56:16.618Z,0.60
2023-03-11T22:58:45.763Z,0.50
2023-03-11T23:01:16.765Z,0.50
2023-03-11T23:03:45.914Z,0.50
2023-03-11T23:06:15.776Z,0.50
2023-03-11T23:08:44.608Z,0.60
2023-03-11T23:11:14.884Z,0.60
2023-03-11T23:13:43.759Z,0.60
2023-03-11T23:16:14.494Z,0.50
2023-03-11T23:18:45.547Z,0.50
2023-03-11T23:21:18.807Z,0.50
2023-03-11T23:23:48.122Z,0.60
2023-03-11T23:26:16.905Z,0.60
2023-03-11T23:28:46.334Z,0.50
2023-03-11T23:31:17.274Z,0.50
2023-03-11T23:33:47.627Z,0.40
2023-03-11T23:36:17.693Z,0.40
2023-03-11T23:38:46.711Z,0.40
2023-03-11T23:41:16.582Z,0.50
2023-03-11T23:43:45.365Z,0.60
2023-03-11T23:46:14.509Z,0.50
2023-03-11T23:48:43.767Z,0.50
2023-03-11T23:51:13.727Z,0.40
2023-03-11T23:53:42.357Z,0.40
2023-03-11T23:56:12.422Z,0.30
2023-03-11T23:58:41.053Z,0.30
